createdAt,value
2017-08-11T00:01:24.484Z,91.50
2017-08-11T00:03:53.162Z,92.30
2017-08-11T00:06:21.506Z,92.44
2017-08-11T00:08:49.827Z,92.02
2017-08-11T00:11:18.171Z,91.69
2017-08-11T00:13:46.494Z,90.92
2017-08-11T00:16:14.834Z,91.22
2017-08-11T00:18:43.153Z,91.59
2017-08-11T00:21:11.512Z,91.87
2017-08-11T00:23:39.842Z,91.52
2017-08-11T00:26:08.562Z,91.47
2017-08-11T00:28:36.896Z,92.01
2017-08-11T00:31:05.227Z,91.73
2017-08-11T00:33:34.342Z,91.11
2017-08-11T00:36:02.682Z,91.08
2017-08-11T00:38:31.093Z,91.29
2017-08-11T00:40:59.434Z,91.44
2017-08-11T00:43:27.774Z,91.08
2017-08-11T00:45:57.033Z,91.45
2017-08-11T00:48:25.362Z,91.71
2017-08-11T00:50:53.812Z,91.51
2017-08-11T00:53:22.195Z,91.34
2017-08-11T00:55:50.531Z,90.70
2017-08-11T00:58:18.862Z,90.64
2017-08-11T01:00:47.218Z,90.84
2017-08-11T01:03:15.573Z,90.99
2017-08-11T01:05:43.924Z,90.36
2017-08-11T01:08:12.574Z,90.61
2017-08-11T01:10:40.897Z,91.71
2017-08-11T01:13:09.213Z,92.23
2017-08-11T01:15:38.337Z,92.29
2017-08-11T01:18:06.656Z,91.48
2017-08-11T01:20:35.022Z,91.35
2017-08-11T01:23:03.352Z,90.81
2017-08-11T01:25:32.471Z,90.43
2017-08-11T01:28:00.810Z,90.52
2017-08-11T01:30:29.142Z,91.12
2017-08-11T01:32:57.532Z,91.38
2017-08-11T01:35:25.867Z,91.77
2017-08-11T01:37:55.030Z,91.58
2017-08-11T01:40:23.371Z,91.22
2017-08-11T01:42:52.016Z,90.67
2017-08-11T01:45:20.342Z,90.38
2017-08-11T01:47:48.672Z,90.44
2017-08-11T01:50:17.010Z,90.16
2017-08-11T01:52:46.381Z,90.22
2017-08-11T01:55:15.493Z,90.11
2017-08-11T01:57:43.837Z,91.06
2017-08-11T02:00:21.716Z,90.82
2017-08-11T02:02:50.043Z,90.72
2017-08-11T02:05:18.471Z,91.06
2017-08-11T02:07:46.869Z,91.38
2017-08-11T02:10:15.206Z,91.66
2017-08-11T02:12:43.558Z,91.34
2017-08-11T02:15:12.668Z,91.40
2017-08-11T02:17:41.021Z,90.88
2017-08-11T02:20:09.357Z,90.60
2017-08-11T02:22:38.107Z,91.54
2017-08-11T02:25:06.437Z,91.93
2017-08-11T02:27:34.812Z,92.19
2017-08-11T02:30:03.181Z,91.87
2017-08-11T02:32:31.501Z,91.48
2017-08-11T02:35:00.632Z,91.27
2017-08-11T02:37:28.955Z,92.18
2017-08-11T02:39:57.290Z,92.17
2017-08-11T02:42:25.634Z,91.62
2017-08-11T02:44:53.968Z,91.96
2017-08-11T02:47:22.318Z,92.55
2017-08-11T02:49:50.666Z,92.10
2017-08-11T02:52:19.055Z,90.89
2017-08-11T02:54:47.402Z,90.62
2017-08-11T02:57:15.775Z,91.16
2017-08-11T02:59:44.114Z,91.99
2017-08-11T03:02:12.446Z,91.54
2017-08-11T03:04:40.831Z,91.50
2017-08-11T03:07:09.147Z,92.33
2017-08-11T03:09:38.261Z,92.11
2017-08-11T03:12:06.577Z,91.99
2017-08-11T03:14:35.013Z,92.33
2017-08-11T03:17:03.347Z,92.44
2017-08-11T03:19:31.686Z,92.62
2017-08-11T03:22:00.055Z,92.37
2017-08-11T03:24:28.399Z,92.37
2017-08-11T03:26:56.736Z,91.39
2017-08-11T03:29:25.487Z,91.10
2017-08-11T03:31:54.911Z,92.11
2017-08-11T03:34:23.267Z,92.65
2017-08-11T03:36:51.592Z,91.46
2017-08-11T03:39:19.925Z,91.95
2017-08-11T03:41:49.030Z,92.14
2017-08-11T03:44:17.462Z,92.36
2017-08-11T03:46:45.816Z,91.75
2017-08-11T03:49:14.153Z,92.59
2017-08-11T03:51:42.493Z,92.31
2017-08-11T03:54:10.858Z,91.98
2017-08-11T03:56:39.203Z,92.33
2017-08-11T03:59:08.312Z,92.37
2017-08-11T04:01:36.674Z,92.44
2017-08-11T04:04:05.039Z,92.48
2017-08-11T04:06:33.746Z,92.21
2017-08-11T04:09:02.069Z,92.02
2017-08-11T04:11:30.405Z,92.20
2017-08-11T04:13:59.528Z,92.57
2017-08-11T04:16:27.861Z,92.71
2017-08-11T04:18:56.209Z,92.40
2017-08-11T04:21:25.474Z,92.51
2017-08-11T04:23:53.824Z,92.46
2017-08-11T04:26:22.158Z,92.73
2017-08-11T04:28:50.527Z,93.06
2017-08-11T04:31:18.952Z,93.22
2017-08-11T04:33:47.293Z,93.22
2017-08-11T04:36:15.635Z,93.29
2017-08-11T04:38:43.959Z,92.78
2017-08-11T04:41:12.301Z,92.59
2017-08-11T04:43:40.634Z,91.71
2017-08-11T04:46:08.965Z,91.78
2017-08-11T04:48:37.297Z,91.79
2017-08-11T04:51:05.611Z,92.50
2017-08-11T04:53:33.966Z,92.28
2017-08-11T04:56:02.304Z,92.07
2017-08-11T04:58:30.649Z,91.82
2017-08-11T05:00:58.996Z,91.75
2017-08-11T05:03:27.319Z,91.77
2017-08-11T05:05:55.726Z,91.94
2017-08-11T05:08:24.053Z,92.62
2017-08-11T05:10:52.395Z,92.86
2017-08-11T05:13:20.740Z,91.95
2017-08-11T05:15:49.081Z,91.66
2017-08-11T05:18:17.504Z,92.02
2017-08-11T05:20:45.840Z,91.97
2017-08-11T05:23:14.199Z,92.25
2017-08-11T05:25:42.529Z,92.56
2017-08-11T05:28:10.900Z,92.49
2017-08-11T05:30:39.268Z,92.40
2017-08-11T05:33:07.609Z,92.20
2017-08-11T05:35:35.969Z,92.42
2017-08-11T05:38:04.330Z,93.11
2017-08-11T05:40:32.685Z,92.84
2017-08-11T05:43:01.049Z,93.40
2017-08-11T05:45:29.421Z,93.81
2017-08-11T05:47:57.767Z,93.79
2017-08-11T05:50:26.114Z,93.50
2017-08-11T05:52:54.510Z,93.28
2017-08-11T05:55:22.843Z,92.80
2017-08-11T05:57:51.759Z,93.25
2017-08-11T06:00:20.088Z,92.89
2017-08-11T06:02:48.420Z,92.46
2017-08-11T06:05:17.595Z,93.44
2017-08-11T06:07:45.940Z,93.90
2017-08-11T06:10:14.289Z,93.75
2017-08-11T06:12:42.611Z,94.12
2017-08-11T06:15:10.959Z,93.60
2017-08-11T06:17:39.296Z,93.09
2017-08-11T06:20:07.708Z,92.95
2017-08-11T06:22:36.061Z,92.89
2017-08-11T06:25:04.391Z,93.31
2017-08-11T06:27:32.749Z,92.62
2017-08-11T06:30:01.102Z,93.24
2017-08-11T06:32:29.486Z,92.54
2017-08-11T06:34:57.821Z,93.24
2017-08-11T06:37:26.171Z,93.42
2017-08-11T06:39:54.526Z,93.09
2017-08-11T06:42:22.875Z,93.35
2017-08-11T06:44:51.233Z,93.83
2017-08-11T06:47:19.584Z,93.19
2017-08-11T06:49:47.935Z,92.50
2017-08-11T06:52:16.295Z,92.08
2017-08-11T06:54:44.629Z,92.09
2017-08-11T06:57:12.996Z,91.86
2017-08-11T06:59:41.332Z,91.24
2017-08-11T07:02:09.758Z,90.88
2017-08-11T07:04:38.103Z,91.07
2017-08-11T07:07:06.470Z,91.24
2017-08-11T07:09:34.851Z,91.59
2017-08-11T07:12:03.202Z,91.48
2017-08-11T07:14:31.546Z,90.63
2017-08-11T07:16:59.873Z,90.46
2017-08-11T07:19:28.259Z,90.01
2017-08-11T07:21:57.198Z,90.55
2017-08-11T07:24:26.647Z,91.26
2017-08-11T07:26:54.987Z,90.89
2017-08-11T07:29:23.322Z,90.88
2017-08-11T07:31:51.673Z,91.13
2017-08-11T07:34:20.090Z,91.48
2017-08-11T07:36:48.452Z,91.60
2017-08-11T07:39:16.778Z,91.81
2017-08-11T07:41:46.141Z,91.30
2017-08-11T07:44:14.474Z,91.26
2017-08-11T07:46:42.810Z,91.34
2017-08-11T07:49:11.203Z,91.00
2017-08-11T07:51:39.544Z,89.96
2017-08-11T07:54:07.915Z,90.63
2017-08-11T07:56:40.113Z,90.22
2017-08-11T07:59:09.249Z,89.21
2017-08-11T08:01:37.602Z,89.74
2017-08-11T08:04:05.975Z,89.44
2017-08-11T08:06:34.351Z,89.50
2017-08-11T08:09:02.712Z,88.37
2017-08-11T08:11:31.068Z,85.36
2017-08-11T08:13:59.399Z,87.42
2017-08-11T08:16:28.081Z,87.76
2017-08-11T08:18:57.053Z,84.10
2017-08-11T08:21:25.374Z,85.29
2017-08-11T08:23:53.723Z,85.04
2017-08-11T08:26:22.066Z,83.76
2017-08-11T08:28:50.406Z,86.13
2017-08-11T08:31:18.747Z,87.21
2017-08-11T08:33:47.388Z,84.98
2017-08-11T08:36:15.733Z,86.57
2017-08-11T08:38:44.089Z,83.25
2017-08-11T08:41:12.449Z,83.86
2017-08-11T08:43:40.810Z,83.01
2017-08-11T08:46:09.937Z,84.57
2017-08-11T08:48:38.289Z,82.68
2017-08-11T08:51:06.989Z,83.08
2017-08-11T08:53:35.330Z,85.03
2017-08-11T08:56:03.680Z,85.52
2017-08-11T08:58:32.096Z,85.89
2017-08-11T09:01:00.442Z,84.83
2017-08-11T09:03:28.796Z,87.28
2017-08-11T09:05:57.123Z,85.62
2017-08-11T09:08:25.745Z,86.05
2017-08-11T09:10:54.085Z,84.80
2017-08-11T09:13:22.464Z,82.30
2017-08-11T09:15:50.825Z,83.59
2017-08-11T09:18:19.185Z,84.88
2017-08-11T09:20:47.784Z,84.86
2017-08-11T09:23:16.124Z,84.57
2017-08-11T09:26:02.698Z,87.21
2017-08-11T09:28:48.559Z,85.36
2017-08-11T09:31:34.484Z,84.35
2017-08-11T09:34:20.318Z,84.81
2017-08-11T09:36:48.663Z,85.64
2017-08-11T09:39:17.023Z,85.25
2017-08-11T09:41:45.395Z,84.40
2017-08-11T09:44:13.735Z,82.99
2017-08-11T09:46:42.081Z,83.37
2017-08-11T09:49:10.429Z,83.00
2017-08-11T09:51:38.807Z,82.23
2017-08-11T09:54:07.168Z,80.72
2017-08-11T09:56:35.514Z,82.83
2017-08-11T09:59:04.237Z,80.88
2017-08-11T10:01:32.604Z,84.21
2017-08-11T10:04:00.941Z,84.56
2017-08-11T10:06:29.306Z,85.52
2017-08-11T10:08:57.651Z,85.11
2017-08-11T10:11:26.021Z,85.56
2017-08-11T10:13:54.361Z,85.46
2017-08-11T10:16:22.733Z,85.68
2017-08-11T10:18:51.088Z,85.13
2017-08-11T10:21:19.451Z,83.89
2017-08-11T10:23:48.236Z,82.52
2017-08-11T10:26:16.592Z,81.00
2017-08-11T10:28:44.966Z,84.30
2017-08-11T10:31:14.082Z,82.48
2017-08-11T10:33:42.441Z,82.53
2017-08-11T10:36:10.775Z,83.48
2017-08-11T10:38:39.135Z,82.04
2017-08-11T10:41:07.485Z,81.88
2017-08-11T10:43:36.638Z,81.98
2017-08-11T10:46:05.016Z,81.78
2017-08-11T10:48:33.352Z,84.07
2017-08-11T10:51:01.732Z,82.59
2017-08-11T10:53:30.087Z,82.27
2017-08-11T10:55:58.429Z,83.14
2017-08-11T10:58:26.807Z,82.92
2017-08-11T11:00:55.147Z,82.51
2017-08-11T11:03:23.547Z,81.71
2017-08-11T11:05:51.883Z,82.27
2017-08-11T11:08:20.996Z,82.52
2017-08-11T11:10:50.024Z,81.84
2017-08-11T11:13:18.351Z,81.50
2017-08-11T11:15:46.708Z,81.75
2017-08-11T11:18:15.041Z,81.21
2017-08-11T11:20:43.420Z,84.31
2017-08-11T11:23:11.790Z,83.89
2017-08-11T11:25:40.903Z,84.30
2017-08-11T11:28:09.295Z,83.36
2017-08-11T11:30:37.630Z,83.50
2017-08-11T11:33:06.013Z,82.13
2017-08-11T11:35:34.368Z,81.40
2017-08-11T11:38:02.737Z,82.74
2017-08-11T11:40:31.169Z,83.91
2017-08-11T11:42:59.501Z,83.32
2017-08-11T11:45:27.883Z,85.15
2017-08-11T11:47:56.207Z,84.34
2017-08-11T11:50:24.551Z,82.17
2017-08-11T11:52:52.901Z,84.47
2017-08-11T11:55:21.680Z,83.41
2017-08-11T11:57:50.021Z,85.01
2017-08-11T12:00:19.111Z,85.83
2017-08-11T12:02:47.481Z,85.96
2017-08-11T12:05:15.820Z,84.68
2017-08-11T12:07:44.195Z,83.75
2017-08-11T12:10:12.536Z,83.70
2017-08-11T12:12:41.676Z,84.48
2017-08-11T12:15:10.025Z,83.04
2017-08-11T12:17:38.395Z,84.29
2017-08-11T12:20:06.754Z,84.08
2017-08-11T12:22:35.097Z,82.08
2017-08-11T12:25:03.466Z,81.83
2017-08-11T12:27:31.938Z,81.83
2017-08-11T12:30:00.614Z,81.78
2017-08-11T12:32:28.958Z,83.36
2017-08-11T12:34:57.287Z,83.84
2017-08-11T12:37:25.648Z,82.54
2017-08-11T12:39:54.803Z,84.29
2017-08-11T12:42:23.179Z,83.00
2017-08-11T12:44:51.514Z,83.66
2017-08-11T12:47:20.120Z,84.05
2017-08-11T12:49:48.487Z,83.53
2017-08-11T12:52:16.830Z,84.31
2017-08-11T12:54:45.172Z,84.19
2017-08-11T12:57:13.932Z,84.94
2017-08-11T12:59:42.290Z,84.94
2017-08-11T13:02:11.394Z,84.52
2017-08-11T13:04:39.741Z,82.96
2017-08-11T13:07:08.073Z,83.38
2017-08-11T13:09:36.417Z,82.81
2017-08-11T13:12:05.537Z,85.05
2017-08-11T13:14:33.878Z,82.85
2017-08-11T13:17:02.260Z,80.89
2017-08-11T13:19:30.612Z,80.38
2017-08-11T13:21:59.371Z,81.27
2017-08-11T13:24:27.707Z,82.31
2017-08-11T13:26:56.066Z,80.24
2017-08-11T13:29:24.428Z,81.31
2017-08-11T13:31:52.852Z,80.13
2017-08-11T13:34:21.214Z,81.75
2017-08-11T13:36:49.610Z,80.90
2017-08-11T13:39:17.977Z,81.41
2017-08-11T13:41:46.352Z,82.38
2017-08-11T13:44:14.729Z,81.07
2017-08-11T13:46:43.065Z,80.48
2017-08-11T13:49:11.424Z,82.48
2017-08-11T13:51:40.558Z,81.20
2017-08-11T13:54:08.897Z,80.11
2017-08-11T13:56:37.272Z,80.10
2017-08-11T13:59:05.652Z,80.66
2017-08-11T14:01:34.025Z,80.47
2017-08-11T14:04:02.416Z,81.71
2017-08-11T14:06:30.773Z,80.49
2017-08-11T14:08:59.173Z,80.07
2017-08-11T14:11:27.519Z,79.71
2017-08-11T14:13:55.885Z,81.38
2017-08-11T14:16:24.275Z,82.27
2017-08-11T14:18:53.109Z,82.30
2017-08-11T14:21:21.500Z,82.83
2017-08-11T14:23:55.792Z,79.97
2017-08-11T14:26:24.166Z,79.41
2017-08-11T14:28:52.510Z,82.14
2017-08-11T14:31:21.373Z,81.59
2017-08-11T14:33:49.709Z,83.74
2017-08-11T14:36:18.046Z,84.23
2017-08-11T14:39:00.392Z,83.30
2017-08-11T14:41:29.928Z,83.35
2017-08-11T14:43:58.397Z,83.66
2017-08-11T14:46:26.743Z,84.29
2017-08-11T14:49:01.606Z,84.74
2017-08-11T14:51:31.803Z,85.60
2017-08-11T14:54:00.514Z,85.96
2017-08-11T14:56:33.873Z,84.30
2017-08-11T14:59:07.674Z,85.38
2017-08-11T15:01:37.845Z,85.53
2017-08-11T15:04:16.241Z,85.85
2017-08-11T15:06:45.679Z,84.41
2017-08-11T15:09:14.024Z,83.44
2017-08-11T15:11:42.368Z,82.35
2017-08-11T15:14:10.724Z,81.63
2017-08-11T15:16:39.868Z,80.95
2017-08-11T15:19:08.194Z,81.30
2017-08-11T15:21:36.884Z,83.72
2017-08-11T15:24:05.223Z,82.71
2017-08-11T15:26:33.557Z,82.14
2017-08-11T15:29:01.964Z,82.58
2017-08-11T15:31:31.284Z,84.09
2017-08-11T15:33:59.627Z,82.55
2017-08-11T15:36:31.154Z,83.02
2017-08-11T15:39:00.071Z,83.09
2017-08-11T15:41:28.402Z,83.42
2017-08-11T15:43:56.761Z,83.40
2017-08-11T15:46:25.842Z,83.95
2017-08-11T15:48:54.210Z,83.92
2017-08-11T15:51:22.916Z,84.37
2017-08-11T15:53:51.250Z,83.67
2017-08-11T15:56:20.364Z,82.38
2017-08-11T15:58:59.210Z,82.57
2017-08-11T16:01:27.642Z,82.76
2017-08-11T16:03:56.001Z,82.26
2017-08-11T16:06:24.334Z,84.10
2017-08-11T16:08:52.693Z,84.66
2017-08-11T16:11:21.048Z,85.13
2017-08-11T16:13:49.391Z,85.34
2017-08-11T16:16:18.193Z,84.62
2017-08-11T16:18:46.521Z,85.10
2017-08-11T16:21:14.856Z,85.46
2017-08-11T16:23:43.223Z,86.29
2017-08-11T16:26:11.537Z,86.73
2017-08-11T16:28:40.294Z,87.47
2017-08-11T16:31:08.689Z,87.72
2017-08-11T16:33:37.018Z,88.64
2017-08-11T16:36:06.167Z,88.96
2017-08-11T16:38:34.505Z,89.21
2017-08-11T16:41:03.190Z,89.55
2017-08-11T16:43:31.531Z,89.82
2017-08-11T16:45:59.847Z,89.78
2017-08-11T16:48:28.968Z,88.60
2017-08-11T16:50:57.288Z,90.07
2017-08-11T16:53:25.650Z,90.15
2017-08-11T16:55:54.187Z,89.95
2017-08-11T16:58:22.554Z,90.07
2017-08-11T17:00:51.423Z,90.19
2017-08-11T17:03:19.940Z,90.25
2017-08-11T17:05:48.323Z,88.83
2017-08-11T17:08:16.696Z,90.12
2017-08-11T17:10:45.068Z,90.55
2017-08-11T17:13:13.426Z,91.33
2017-08-11T17:15:42.275Z,91.41
2017-08-11T17:18:10.902Z,90.28
2017-08-11T17:20:39.645Z,91.09
2017-08-11T17:23:08.009Z,90.95
2017-08-11T17:25:36.412Z,90.88
2017-08-11T17:28:06.821Z,91.50
2017-08-11T17:30:35.624Z,91.66
2017-08-11T17:33:03.990Z,91.38
2017-08-11T17:35:32.384Z,91.65
2017-08-11T17:38:00.763Z,91.56
2017-08-11T17:40:29.144Z,91.67
2017-08-11T17:42:57.583Z,91.80
2017-08-11T17:45:25.923Z,91.39
2017-08-11T17:47:54.323Z,91.43
2017-08-11T17:50:22.678Z,90.44
2017-08-11T17:52:51.049Z,91.07
2017-08-11T17:55:19.432Z,91.79
2017-08-11T17:57:47.824Z,91.07
2017-08-11T18:00:16.190Z,91.73
2017-08-11T18:02:44.535Z,92.03
2017-08-11T18:05:13.674Z,92.42
2017-08-11T18:07:42.056Z,92.44
2017-08-11T18:10:10.765Z,92.66
2017-08-11T18:12:40.024Z,92.67
2017-08-11T18:15:08.890Z,92.55
2017-08-11T18:17:38.713Z,92.56
2017-08-11T18:20:07.638Z,91.96
2017-08-11T18:22:36.775Z,91.95
2017-08-11T18:25:06.166Z,91.90
2017-08-11T18:27:36.206Z,91.87
2017-08-11T18:30:05.564Z,91.12
2017-08-11T18:32:34.567Z,91.15
2017-08-11T18:35:03.506Z,91.11
2017-08-11T18:37:32.566Z,90.83
2017-08-11T18:40:02.437Z,91.14
2017-08-11T18:42:31.362Z,91.67
2017-08-11T18:45:00.642Z,91.75
2017-08-11T18:47:29.480Z,91.70
2017-08-11T18:49:58.367Z,91.60
2017-08-11T18:52:26.720Z,92.09
2017-08-11T18:54:55.045Z,92.58
2017-08-11T18:57:23.393Z,92.86
2017-08-11T18:59:51.746Z,92.25
2017-08-11T19:02:20.501Z,92.32
2017-08-11T19:04:48.853Z,92.34
2017-08-11T19:07:17.209Z,92.06
2017-08-11T19:09:45.599Z,92.08
2017-08-11T19:12:13.957Z,92.51
2017-08-11T19:14:42.332Z,92.36
2017-08-11T19:17:10.692Z,92.41
2017-08-11T19:19:40.003Z,92.03
2017-08-11T19:22:08.353Z,92.93
2017-08-11T19:24:36.691Z,92.47
2017-08-11T19:27:05.053Z,92.17
2017-08-11T19:29:34.256Z,91.93
2017-08-11T19:32:02.611Z,92.25
2017-08-11T19:34:31.805Z,92.91
2017-08-11T19:37:02.144Z,92.67
2017-08-11T19:39:30.495Z,92.21
2017-08-11T19:41:59.742Z,92.61
2017-08-11T19:44:28.147Z,92.89
2017-08-11T19:46:56.495Z,92.72
2017-08-11T19:49:24.854Z,92.37
2017-08-11T19:51:53.236Z,92.56
2017-08-11T19:54:22.024Z,92.79
2017-08-11T19:56:50.359Z,92.99
2017-08-11T19:59:18.710Z,92.67
2017-08-11T20:01:47.099Z,92.74
2017-08-11T20:04:15.464Z,92.69
2017-08-11T20:06:43.849Z,92.22
2017-08-11T20:09:12.206Z,92.99
2017-08-11T20:11:40.567Z,93.13
2017-08-11T20:14:09.711Z,92.76
2017-08-11T20:16:38.047Z,92.45
2017-08-11T20:19:06.414Z,92.22
2017-08-11T20:21:34.803Z,92.38
2017-08-11T20:24:03.200Z,92.73
2017-08-11T20:26:32.125Z,92.88
2017-08-11T20:29:01.381Z,93.08
2017-08-11T20:31:31.077Z,92.87
2017-08-11T20:34:00.111Z,91.91
2017-08-11T20:36:29.437Z,92.55
2017-08-11T20:38:58.545Z,92.97
2017-08-11T20:41:27.569Z,93.04
2017-08-11T20:43:56.379Z,92.98
2017-08-11T20:46:25.362Z,92.76
2017-08-11T20:48:54.331Z,92.12
2017-08-11T20:51:23.339Z,92.45
2017-08-11T20:53:52.568Z,91.98
2017-08-11T20:56:21.568Z,92.66
2017-08-11T20:58:50.684Z,92.65
2017-08-11T21:01:19.791Z,92.53
2017-08-11T21:03:49.103Z,92.23
2017-08-11T21:06:18.369Z,92.17
2017-08-11T21:08:47.841Z,92.51
2017-08-11T21:11:17.491Z,92.56
2017-08-11T21:13:46.997Z,92.86
2017-08-11T21:16:16.621Z,93.00
2017-08-11T21:18:46.182Z,93.21
2017-08-11T21:21:16.606Z,93.38
2017-08-11T21:23:46.116Z,93.06
2017-08-11T21:26:14.598Z,93.19
2017-08-11T21:28:43.515Z,93.24
2017-08-11T21:31:12.502Z,93.11
2017-08-11T21:33:41.520Z,93.07
2017-08-11T21:36:10.341Z,92.80
2017-08-11T21:38:39.447Z,92.79
2017-08-11T21:41:07.816Z,93.26
2017-08-11T21:43:36.816Z,93.15
2017-08-11T21:46:05.742Z,92.91
2017-08-11T21:48:35.429Z,92.91
2017-08-11T21:51:04.375Z,93.04
2017-08-11T21:53:34.327Z,93.19
2017-08-11T21:56:03.542Z,92.69
2017-08-11T21:58:32.553Z,92.11
2017-08-11T22:01:02.689Z,92.43
2017-08-11T22:03:36.088Z,92.95
2017-08-11T22:06:06.146Z,92.99
2017-08-11T22:08:36.442Z,93.22
2017-08-11T22:11:05.352Z,92.99
2017-08-11T22:13:34.583Z,93.36
2017-08-11T22:16:03.299Z,93.57
2017-08-11T22:18:32.081Z,93.05
2017-08-11T22:21:00.950Z,93.47
2017-08-11T22:23:29.292Z,92.97
2017-08-11T22:25:57.639Z,93.09
2017-08-11T22:28:26.734Z,93.09
2017-08-11T22:30:55.096Z,92.80
2017-08-11T22:33:23.426Z,92.43
2017-08-11T22:35:51.795Z,92.30
2017-08-11T22:38:20.138Z,92.64
2017-08-11T22:40:48.464Z,93.05
2017-08-11T22:43:16.808Z,93.57
2017-08-11T22:45:45.148Z,93.79
2017-08-11T22:48:13.509Z,93.72
2017-08-11T22:50:43.918Z,93.30
2017-08-11T22:53:12.926Z,92.99
2017-08-11T22:55:41.277Z,92.88
2017-08-11T22:58:10.376Z,92.90
2017-08-11T23:00:38.729Z,93.20
2017-08-11T23:03:07.072Z,93.43
2017-08-11T23:05:35.423Z,93.15
2017-08-11T23:08:03.792Z,92.88
2017-08-11T23:10:32.907Z,93.00
2017-08-11T23:13:01.257Z,92.67
2017-08-11T23:15:29.592Z,93.01
2017-08-11T23:17:57.944Z,93.13
2017-08-11T23:20:26.341Z,93.13
2017-08-11T23:22:54.939Z,93.35
2017-08-11T23:25:23.274Z,93.61
2017-08-11T23:27:52.048Z,93.41
2017-08-11T23:30:20.455Z,93.29
2017-08-11T23:32:48.788Z,93.16
2017-08-11T23:35:17.217Z,92.89
2017-08-11T23:37:45.568Z,92.96
2017-08-11T23:40:14.951Z,92.59
2017-08-11T23:42:43.301Z,92.83
2017-08-11T23:45:11.642Z,93.37
2017-08-11T23:47:40.776Z,93.53
2017-08-11T23:50:09.121Z,93.39
2017-08-11T23:52:37.499Z,93.04
2017-08-11T23:55:05.817Z,93.15
2017-08-11T23:57:34.448Z,92.89
